Time;durP1;ratioP1;P1;durP2;ratioP2;P2;SDS_P1;SDS_P2;PMS_P1;PMS_P2;Temp;Humidity;BMP_temperature;BMP_pressure;BME280_temperature;BME280_humidity;BME280_pressure;Samples;Min_cycle;Max_cycle;Signal;HPM_P1;HPM_P2
2021/07/31 00:00:45;;;;;;;4.90;4.40;;;25.90;55.00;;;;;;6145496;23;20387;-87
2021/07/31 00:03:16;;;;;;;5.13;4.63;;;25.90;55.00;;;;;;6204112;23;20383;-87
2021/07/31 00:05:47;;;;;;;5.30;4.80;;;25.90;55.00;;;;;;6179127;23;20480;-87
2021/07/31 00:08:17;;;;;;;4.80;4.40;;;25.90;54.90;;;;;;6179456;23;20410;-87
2021/07/31 00:10:58;;;;;;;5.10;4.70;;;25.90;54.90;;;;;;6205297;23;20422;-87
2021/07/31 00:13:36;;;;;;;6.07;4.90;;;26.00;55.00;;;;;;6180355;23;20374;-87
2021/07/31 00:16:06;;;;;;;4.70;4.30;;;25.90;55.00;;;;;;6200416;23;20410;-87
2021/07/31 00:18:44;;;;;;;6.23;5.63;;;25.90;54.90;;;;;;6183010;23;20387;-87
2021/07/31 00:21:22;;;;;;;5.47;4.40;;;25.90;54.90;;;;;;6171611;23;20383;-87
2021/07/31 00:23:53;;;;;;;5.43;4.93;;;25.90;54.80;;;;;;6180033;23;20406;-87
2021/07/31 00:26:25;;;;;;;5.07;4.67;;;25.90;54.80;;;;;;6181486;23;20483;-87
2021/07/31 00:29:06;;;;;;;;;;;;;;;;;;;;;
2021/07/31 00:31:43;;;;;;;5.10;4.63;;;25.90;54.80;;;;;;6208077;23;20355;-87
2021/07/31 00:34:25;;;;;;;;;;;;;;;;;;;;;
2021/07/31 00:36:53;;;;;;;4.50;4.10;;;25.90;54.80;;;;;;6184271;23;20359;-87
2021/07/31 00:39:34;;;;;;;;;;;;;;;;;;;;;
2021/07/31 00:42:07;;;;;;;4.40;4.00;;;25.90;54.80;;;;;;6207471;23;20359;-87
2021/07/31 00:44:48;;;;;;;4.90;4.40;;;25.90;54.80;;;;;;6205964;23;20999;-87
2021/07/31 00:47:26;;;;;;;4.20;3.80;;;25.90;54.80;;;;;;6207347;23;20355;-88
2021/07/31 00:49:56;;;;;;;5.03;4.27;;;25.90;54.80;;;;;;6157241;23;20375;-87
2021/07/31 00:52:26;;;;;;;4.77;4.13;;;25.90;54.80;;;;;;6181518;23;20402;-87
2021/07/31 00:55:13;;;;;;;4.20;3.80;;;25.90;54.80;;;;;;6179648;23;20406;-89
2021/07/31 00:57:46;;;;;;;5.10;4.40;;;25.90;54.70;;;;;;6176309;23;20383;-89
2021/07/31 01:00:36;;;;;;;4.20;3.80;;;25.90;54.70;;;;;;6174952;23;20467;-89
2021/07/31 01:03:04;;;;;;;4.53;4.13;;;25.90;54.70;;;;;;6201791;23;20402;-89
2021/07/31 01:05:39;;;;;;;5.50;4.10;;;25.90;54.70;;;;;;6175670;23;20731;-89
2021/07/31 01:08:07;;;;;;;4.47;3.93;;;25.90;54.70;;;;;;6175840;23;20383;-89
2021/07/31 01:10:42;;;;;;;4.37;3.97;;;25.90;54.70;;;;;;6176135;23;20719;-89
2021/07/31 01:13:13;;;;;;;4.63;4.13;;;25.90;54.70;;;;;;6176155;23;20383;-89
2021/07/31 01:16:07;;;;;;;3.40;3.10;;;25.90;54.70;;;;;;6201290;23;20382;-89
2021/07/31 01:18:38;;;;;;;4.30;3.90;;;25.90;54.60;;;;;;6175656;23;20391;-89
2021/07/31 01:21:09;;;;;;;4.90;3.70;;;25.90;54.60;;;;;;6175909;23;20387;-89
2021/07/31 01:24:00;;;;;;;3.60;3.30;;;25.90;54.60;;;;;;6200835;23;20449;-89
2021/07/31 01:26:43;;;;;;;4.70;4.30;;;25.90;54.60;;;;;;6176225;23;20387;-90
2021/07/31 01:29:22;;;;;;;4.13;3.73;;;25.90;54.60;;;;;;6176243;23;20422;-90
2021/07/31 01:31:54;;;;;;;4.07;3.67;;;25.90;54.60;;;;;;6202408;23;20347;-89
2021/07/31 01:34:32;;;;;;;3.70;3.40;;;25.90;54.50;;;;;;6175260;23;20392;-90
2021/07/31 01:44:04;;;;;;;3.80;3.50;;;25.90;54.50;;;;;;6201324;23;20371;-89
2021/07/31 01:46:31;;;;;;;4.27;3.90;;;25.90;54.60;;;;;;6200436;23;20379;-89
2021/07/31 01:52:30;;;;;;;4.20;3.73;;;25.90;54.50;;;;;;6169795;23;20367;-90
2021/07/31 01:55:01;;;;;;;4.10;3.67;;;25.90;54.50;;;;;;6144179;23;20427;-89
2021/07/31 01:57:36;;;;;;;4.27;3.70;;;25.90;54.60;;;;;;6145013;23;20384;-89
2021/07/31 02:00:14;;;;;;;4.60;4.10;;;25.90;54.60;;;;;;6144511;23;20376;-89
2021/07/31 02:02:57;;;;;;;3.90;3.50;;;25.90;54.50;;;;;;6144211;23;20368;-89
2021/07/31 02:05:50;;;;;;;3.67;3.27;;;25.90;54.50;;;;;;6145009;23;20519;-89
2021/07/31 02:08:23;;;;;;;3.37;3.07;;;25.90;54.50;;;;;;6144137;23;20419;-89
2021/07/31 02:10:50;;;;;;;3.80;3.30;;;25.90;54.70;;;;;;6143931;23;20411;-90
2021/07/31 02:13:22;;;;;;;3.53;3.23;;;25.90;54.50;;;;;;6144115;23;20447;-89
2021/07/31 02:16:02;;;;;;;4.00;3.57;;;25.90;54.50;;;;;;6144201;23;20471;-89
2021/07/31 02:18:38;;;;;;;3.00;2.80;;;25.90;54.50;;;;;;6168288;23;20458;-89
2021/07/31 02:21:38;;;;;;;4.33;3.20;;;25.90;54.50;;;;;;6205804;23;20378;-84
2021/07/31 02:24:52;;;;;;;3.87;3.30;;;25.90;54.40;;;;;;6173026;23;20530;-84
2021/07/31 02:34:20;;;;;;;3.93;3.50;;;25.90;54.50;;;;;;6060181;23;20403;-84
2021/07/31 02:37:27;;;;;;;3.40;3.10;;;25.80;54.60;;;;;;6060530;23;20474;-84
2021/07/31 02:43:23;;;;;;;3.83;3.27;;;25.80;54.60;;;;;;5948564;23;20380;-84
2021/07/31 02:46:15;;;;;;;3.50;3.13;;;25.80;54.60;;;;;;5918857;24;20491;-84
2021/07/31 02:49:03;;;;;;;3.07;2.77;;;25.80;54.60;;;;;;6002826;23;20400;-84
2021/07/31 02:51:40;;;;;;;4.10;3.70;;;25.80;54.50;;;;;;5981584;24;20404;-84
2021/07/31 02:54:41;;;;;;;3.40;3.10;;;25.80;54.60;;;;;;5970323;24;20392;-84
2021/07/31 03:00:49;;;;;;;3.40;3.10;;;25.80;54.50;;;;;;5920204;23;20397;-84
2021/07/31 03:03:47;;;;;;;4.80;4.00;;;25.80;54.60;;;;;;5919974;24;20380;-84
2021/07/31 03:06:25;;;;;;;4.10;3.70;;;25.80;54.60;;;;;;5865406;24;20397;-84
2021/07/31 03:09:03;;;;;;;4.90;2.90;;;25.80;54.60;;;;;;5866208;24;20406;-84
2021/07/31 03:18:18;;;;;;;;;;;;;;;;;;;;;
2021/07/31 03:31:00;;;;;;;;;;;;;;;;;;;;;
2021/07/31 03:37:04;;;;;;;3.27;2.97;;;25.80;54.70;;;;;;5880595;24;20401;-85
2021/07/31 03:49:49;;;;;;;3.63;3.30;;;25.80;54.60;;;;;;5864881;24;20377;-85
2021/07/31 03:52:39;;;;;;;3.03;2.73;;;25.80;54.70;;;;;;5888121;24;20393;-85
2021/07/31 03:56:05;;;;;;;3.20;2.90;;;25.80;54.60;;;;;;5920607;24;20517;-84
2021/07/31 03:58:55;;;;;;;3.67;3.37;;;25.80;54.60;;;;;;5891705;24;20385;-85
2021/07/31 04:01:48;;;;;;;2.60;2.40;;;25.80;54.60;;;;;;5891222;24;20393;-85
2021/07/31 04:04:29;;;;;;;3.97;3.67;;;25.80;54.60;;;;;;5891861;24;20435;-85
2021/07/31 04:16:55;;;;;;;3.17;2.90;;;25.80;54.30;;;;;;5999660;24;20444;-88
2021/07/31 04:19:48;;;;;;;3.43;3.07;;;25.80;54.50;;;;;;5970980;24;20458;-86
2021/07/31 04:22:32;;;;;;;3.80;3.47;;;25.70;54.40;;;;;;5971450;24;20387;-87
2021/07/31 04:25:31;;;;;;;;;;;;;;;;;;;;;
2021/07/31 04:28:12;;;;;;;;;;;;;;;;;;;;;
2021/07/31 04:30:46;;;;;;;3.80;3.20;;;25.70;54.30;;;;;;5972721;24;20389;-87
2021/07/31 04:33:19;;;;;;;4.40;3.50;;;25.80;54.40;;;;;;5971800;24;20410;-87
2021/07/31 04:35:47;;;;;;;3.37;3.07;;;25.80;54.30;;;;;;5972685;24;20374;-87
2021/07/31 04:38:18;;;;;;;3.63;3.27;;;25.80;54.20;;;;;;5971940;24;20397;-87
2021/07/31 04:40:52;;;;;;;3.77;3.03;;;25.80;54.20;;;;;;5993302;23;20874;-87
2021/07/31 04:43:25;;;;;;;5.67;3.23;;;25.80;54.10;;;;;;6033738;23;20464;-87
2021/07/31 04:46:02;;;;;;;3.10;2.70;;;25.80;54.10;;;;;;6056309;23;20427;-87
2021/07/31 04:48:34;;;;;;;3.60;3.30;;;25.90;54.10;;;;;;6056514;23;20376;-87
2021/07/31 04:51:12;;;;;;;2.63;2.43;;;25.90;54.10;;;;;;6056907;23;20364;-87
2021/07/31 04:57:14;;;;;;;3.23;2.93;;;25.90;54.00;;;;;;6056806;23;20425;-87
2021/07/31 04:59:49;;;;;;;3.00;2.70;;;25.90;54.10;;;;;;6056547;23;20384;-87
2021/07/31 05:02:22;;;;;;;2.53;2.33;;;25.90;54.00;;;;;;6057139;23;20387;-87
2021/07/31 05:05:00;;;;;;;3.90;2.97;;;25.90;54.10;;;;;;6059326;23;20399;-87
2021/07/31 05:07:35;;;;;;;3.70;3.30;;;25.90;54.00;;;;;;6057613;23;20390;-87
2021/07/31 05:16:34;;;;;;;2.80;2.60;;;25.90;53.90;;;;;;6059072;23;20919;-88
2021/07/31 05:54:12;;;;;;;;;;;;;;;;;;;;;
2021/07/31 06:21:53;;;;;;;2.67;2.20;;;25.90;54.10;;;;;;5686469;24;20387;-84
2021/07/31 06:44:53;;;;;;;2.20;1.97;;;25.90;54.00;;;;;;5786610;24;20463;-85
2021/07/31 06:55:24;;;;;;;2.97;1.80;;;25.80;53.90;;;;;;5761164;24;20372;-85
2021/07/31 07:25:07;;;;;;;2.47;1.70;;;25.80;53.40;;;;;;5909654;24;20443;-87
2021/07/31 07:35:32;;;;;;;;;;;;;;;;;;;;;
2021/07/31 07:58:53;;;;;;;2.27;1.30;;;25.70;52.60;;;;;;5965332;24;20402;-87
2021/07/31 08:01:45;;;;;;;2.60;1.47;;;25.70;52.50;;;;;;5948812;24;20402;-88
2021/07/31 08:04:21;;;;;;;1.50;1.20;;;25.70;52.50;;;;;;5948480;24;20754;-88
2021/07/31 08:31:38;;;;;;;2.17;1.40;;;25.60;52.10;;;;;;5814194;24;20351;-85
2021/07/31 08:37:35;;;;;;;1.73;1.30;;;25.70;52.10;;;;;;5852249;24;20471;-85
2021/07/31 08:47:16;;;;;;;1.93;1.20;;;25.70;51.90;;;;;;5923817;23;20473;-84
2021/07/31 08:50:04;;;;;;;3.20;1.40;;;25.70;51.90;;;;;;5919812;24;20506;-84
2021/07/31 09:52:50;;;;;;;1.70;1.43;;;25.50;51.30;;;;;;6027794;23;21123;-83
2021/07/31 09:56:19;;;;;;;2.47;1.60;;;25.40;50.60;;;;;;6025067;23;20395;-83
2021/07/31 10:09:35;;;;;;;;;;;;;;;;;;;;;
2021/07/31 10:25:49;;;;;;;4.50;1.40;;;25.40;50.70;;;;;;5988039;23;20827;-85
2021/07/31 10:39:03;;;;;;;1.70;1.50;;;25.50;50.50;;;;;;6002864;23;20413;-85
2021/07/31 10:52:43;;;;;;;2.33;1.47;;;25.50;50.50;;;;;;5975727;23;20493;-85
2021/07/31 10:59:15;;;;;;;1.83;1.40;;;25.50;51.10;;;;;;5891822;24;20375;-85
2021/07/31 11:02:43;;;;;;;4.10;1.80;;;25.50;50.50;;;;;;5810637;24;20391;-85
2021/07/31 11:05:49;;;;;;;;;;;;;;;;;;;;;
2021/07/31 11:18:48;;;;;;;2.70;2.00;;;25.50;50.30;;;;;;5733753;25;20414;-85
2021/07/31 11:32:11;;;;;;;;;;;;;;;;;;;;;
2021/07/31 11:38:19;;;;;;;1.90;1.60;;;25.50;50.20;;;;;;5851614;24;20403;-85
2021/07/31 11:44:39;;;;;;;2.23;1.60;;;25.50;50.00;;;;;;5869011;24;20453;-87
2021/07/31 11:47:46;;;;;;;;;;;;;;;;;;;;;
2021/07/31 11:50:48;;;;;;;2.83;1.80;;;25.50;50.20;;;;;;5971758;24;20381;-87
2021/07/31 11:53:32;;;;;;;2.30;1.50;;;25.50;50.10;;;;;;6056711;23;20410;-87
2021/07/31 12:02:47;;;;;;;4.90;1.80;;;25.50;50.10;;;;;;6144752;23;20703;-87
2021/07/31 12:05:49;;;;;;;2.67;1.80;;;25.50;50.10;;;;;;6157886;23;20490;-87
2021/07/31 12:08:57;;;;;;;3.30;1.70;;;25.50;50.20;;;;;;6155619;23;20393;-87
2021/07/31 12:18:45;;;;;;;;;;;;;;;;;;;;;
2021/07/31 12:21:39;;;;;;;2.23;1.63;;;25.50;50.10;;;;;;6088911;23;20378;-87
2021/07/31 12:24:49;;;;;;;;;;;;;;;;;;;;;
2021/07/31 12:30:56;;;;;;;5.13;2.03;;;25.50;49.90;;;;;;6116905;23;20353;-87
2021/07/31 12:33:58;;;;;;;;;;;;;;;;;;;;;
2021/07/31 12:43:29;;;;;;;;;;;;;;;;;;;;;
2021/07/31 12:49:21;;;;;;;3.27;1.97;;;25.50;50.60;;;;;;6058856;23;20392;-87
2021/07/31 12:52:06;;;;;;;3.63;1.57;;;25.50;50.20;;;;;;6015414;23;20400;-87
2021/07/31 12:54:58;;;;;;;1.57;1.47;;;25.50;50.30;;;;;;6095660;23;20394;-87
2021/07/31 12:58:04;;;;;;;;;;;;;;;;;;;;;
2021/07/31 13:10:35;;;;;;;2.00;1.50;;;25.50;50.60;;;;;;6042836;23;20367;-87
2021/07/31 13:13:07;;;;;;;1.70;1.60;;;25.50;50.70;;;;;;6030072;23;20797;-87
2021/07/31 13:16:01;;;;;;;3.10;1.77;;;25.50;50.70;;;;;;6030125;23;20395;-87
2021/07/31 13:18:31;;;;;;;1.90;1.63;;;25.60;50.70;;;;;;6026955;23;20900;-87
2021/07/31 13:21:02;;;;;;;2.90;1.50;;;25.50;51.20;;;;;;6007265;23;20392;-87
2021/07/31 13:29:56;;;;;;;2.03;1.80;;;25.60;50.70;;;;;;6031685;23;20413;-87
2021/07/31 13:35:54;;;;;;;2.63;1.60;;;25.60;51.20;;;;;;6001208;23;20485;-87
2021/07/31 13:38:37;;;;;;;2.07;1.40;;;25.60;50.80;;;;;;6006831;23;20384;-87
2021/07/31 13:45:03;;;;;;;4.57;1.50;;;25.60;50.80;;;;;;6030083;23;20436;-87
2021/07/31 13:47:39;;;;;;;2.23;1.47;;;25.60;50.80;;;;;;6004482;23;20412;-87
2021/07/31 13:50:38;;;;;;;2.10;1.50;;;25.60;50.70;;;;;;6030162;23;20384;-87
2021/07/31 13:57:06;;;;;;;3.77;1.83;;;25.60;50.70;;;;;;6050730;23;20406;-87
2021/07/31 13:59:53;;;;;;;3.10;1.60;;;25.60;50.80;;;;;;6089722;23;20430;-87
2021/07/31 14:06:21;;;;;;;2.73;1.83;;;25.50;50.80;;;;;;6057908;23;20510;-87
2021/07/31 14:09:12;;;;;;;;;;;;;;;;;;;;;
2021/07/31 14:11:56;;;;;;;3.20;1.77;;;25.50;50.80;;;;;;6063725;23;20379;-87
2021/07/31 14:17:26;;;;;;;2.03;1.60;;;25.60;50.90;;;;;;6082539;23;20865;-89
2021/07/31 14:19:59;;;;;;;2.80;1.97;;;25.50;50.80;;;;;;6056808;23;20387;-90
2021/07/31 14:22:28;;;;;;;2.20;1.67;;;25.60;50.80;;;;;;6057706;23;20378;-90
2021/07/31 14:25:02;;;;;;;3.10;1.90;;;25.60;50.90;;;;;;6082869;23;20426;-90
2021/07/31 14:27:43;;;;;;;4.03;1.67;;;25.60;50.80;;;;;;6057261;23;20375;-90
2021/07/31 14:30:12;;;;;;;1.93;1.67;;;25.60;50.80;;;;;;6058522;23;20886;-90
2021/07/31 14:39:37;;;;;;;;;;;;;;;;;;;;;
2021/07/31 14:42:21;;;;;;;3.13;1.80;;;25.60;50.90;;;;;;6201448;23;20383;-90
2021/07/31 14:45:10;;;;;;;3.20;1.90;;;25.60;50.80;;;;;;6176047;23;20419;-90
2021/07/31 14:47:44;;;;;;;3.90;1.87;;;25.60;50.90;;;;;;6201645;23;20352;-90
2021/07/31 14:50:22;;;;;;;3.20;2.13;;;25.60;50.90;;;;;;6201088;23;20368;-90
2021/07/31 14:52:51;;;;;;;5.90;1.90;;;25.60;50.90;;;;;;6200229;23;20383;-90
2021/07/31 14:55:40;;;;;;;1.80;1.60;;;25.60;50.90;;;;;;6202254;23;20434;-90
2021/07/31 14:58:09;;;;;;;3.30;2.10;;;25.60;50.90;;;;;;6201913;23;20383;-90
2021/07/31 15:00:59;;;;;;;1.57;1.47;;;25.60;50.90;;;;;;6205130;23;20379;-85
2021/07/31 15:07:42;;;;;;;2.57;1.87;;;25.60;50.90;;;;;;6207234;23;20402;-84
2021/07/31 15:29:24;;;;;;;2.80;2.03;;;25.60;51.00;;;;;;6001982;24;20385;-86
2021/07/31 15:35:11;;;;;;;;;;;;;;;;;;;;;
2021/07/31 15:41:09;;;;;;;2.60;1.73;;;25.60;51.00;;;;;;5919281;24;20375;-85
2021/07/31 15:44:03;;;;;;;2.10;1.70;;;25.50;51.10;;;;;;5919474;24;20468;-85
2021/07/31 15:46:36;;;;;;;1.70;1.40;;;25.60;51.10;;;;;;5961235;24;20437;-85
2021/07/31 15:49:18;;;;;;;2.27;1.97;;;25.60;51.20;;;;;;5976478;24;20401;-85
2021/07/31 15:58:52;;;;;;;2.30;1.80;;;25.60;51.20;;;;;;6002804;24;20467;-86
2021/07/31 16:18:39;;;;;;;2.03;1.80;;;25.50;51.20;;;;;;5861248;24;20423;-86
2021/07/31 16:21:15;;;;;;;2.37;2.03;;;25.50;51.40;;;;;;5861878;24;20413;-87
2021/07/31 16:23:44;;;;;;;2.93;1.73;;;25.50;51.40;;;;;;5861649;24;20397;-86
2021/07/31 16:33:27;;;;;;;2.20;1.90;;;25.60;51.50;;;;;;5836989;24;20370;-85
2021/07/31 16:35:55;;;;;;;2.00;1.80;;;25.60;51.60;;;;;;5836133;24;20383;-85
2021/07/31 16:38:55;;;;;;;1.97;1.60;;;25.60;51.60;;;;;;5835672;24;20394;-86
2021/07/31 16:41:23;;;;;;;1.60;1.50;;;25.60;51.50;;;;;;5818433;24;20390;-86
2021/07/31 16:43:58;;;;;;;2.43;1.77;;;25.60;51.60;;;;;;5838696;24;20422;-86
2021/07/31 16:46:27;;;;;;;2.57;1.60;;;25.60;51.60;;;;;;5932178;24;20779;-86
2021/07/31 16:49:03;;;;;;;2.70;2.00;;;25.60;51.60;;;;;;5944806;24;20420;-87
2021/07/31 16:51:54;;;;;;;2.70;1.43;;;25.60;52.10;;;;;;6023282;23;20383;-86
2021/07/31 16:57:41;;;;;;;2.60;1.60;;;25.60;51.40;;;;;;6082818;23;20353;-82
2021/07/31 17:00:11;;;;;;;3.73;2.10;;;25.60;51.40;;;;;;6124446;23;20394;-83
2021/07/31 17:31:44;;;;;;;;;;;;;;;;;;;;;
2021/07/31 17:37:00;;;;;;;2.07;1.87;;;25.60;51.80;;;;;;5892894;24;20519;-83
2021/07/31 17:39:29;;;;;;;2.70;1.70;;;25.60;51.90;;;;;;5892785;24;20388;-84
2021/07/31 17:41:55;;;;;;;3.73;2.30;;;25.60;51.90;;;;;;5954952;24;20387;-84
2021/07/31 17:44:23;;;;;;;3.10;2.30;;;25.60;51.90;;;;;;5974125;24;20393;-83
2021/07/31 17:46:56;;;;;;;3.10;1.90;;;25.60;51.80;;;;;;5974648;24;20432;-84
2021/07/31 17:49:23;;;;;;;2.17;1.80;;;25.70;51.90;;;;;;5952957;24;20385;-84
2021/07/31 17:52:12;;;;;;;1.90;1.60;;;25.70;51.90;;;;;;5928498;24;20459;-85
2021/07/31 17:54:42;;;;;;;4.33;2.27;;;25.70;51.80;;;;;;5951071;24;20397;-84
2021/07/31 17:57:09;;;;;;;2.77;2.40;;;25.70;51.90;;;;;;5951407;24;20422;-84
2021/07/31 17:59:38;;;;;;;2.10;1.90;;;25.70;51.90;;;;;;5951254;24;20402;-83
2021/07/31 18:02:10;;;;;;;2.97;2.13;;;25.70;51.90;;;;;;5951909;24;20414;-83
2021/07/31 18:05:03;;;;;;;3.50;2.00;;;25.70;51.90;;;;;;6005427;23;20423;-84
2021/07/31 18:07:32;;;;;;;2.33;2.13;;;25.70;51.80;;;;;;6059051;23;20443;-83
2021/07/31 18:09:58;;;;;;;2.53;1.93;;;25.70;52.00;;;;;;6036089;23;20392;-83
2021/07/31 18:12:24;;;;;;;3.00;1.80;;;25.70;52.00;;;;;;6036905;23;20387;-83
2021/07/31 18:14:51;;;;;;;3.43;2.30;;;25.70;52.00;;;;;;6060347;23;20466;-83
2021/07/31 18:17:20;;;;;;;4.20;2.47;;;25.70;52.00;;;;;;6036864;23;20392;-84
2021/07/31 18:19:46;;;;;;;2.90;2.10;;;25.70;52.00;;;;;;6060929;23;20383;-84
2021/07/31 18:22:15;;;;;;;4.30;3.50;;;25.70;52.00;;;;;;6059700;23;20447;-84
2021/07/31 18:24:45;;;;;;;5.30;3.10;;;25.70;52.00;;;;;;6059338;23;20423;-83
2021/07/31 18:27:17;;;;;;;5.60;3.83;;;25.70;52.10;;;;;;6059718;23;20384;-84
2021/07/31 18:29:48;;;;;;;4.47;3.70;;;25.70;52.00;;;;;;6035528;23;20372;-83
2021/07/31 18:32:14;;;;;;;9.30;4.77;;;25.70;52.00;;;;;;6059697;23;20403;-84
2021/07/31 18:34:57;;;;;;;6.93;5.10;;;25.70;52.00;;;;;;6060038;23;20492;-84
2021/07/31 18:37:24;;;;;;;6.87;4.90;;;25.70;52.00;;;;;;6060238;23;20380;-83
2021/07/31 18:39:53;;;;;;;6.30;5.10;;;25.70;52.00;;;;;;6036906;23;20380;-83
2021/07/31 18:42:22;;;;;;;8.13;5.80;;;25.70;52.00;;;;;;6167974;23;20387;-83
2021/07/31 18:44:53;;;;;;;7.57;5.57;;;25.70;52.00;;;;;;6183035;23;20486;-83
2021/07/31 18:47:29;;;;;;;6.43;5.53;;;25.70;51.90;;;;;;6180155;23;20470;-84
2021/07/31 18:49:55;;;;;;;9.10;5.90;;;25.70;51.80;;;;;;6207886;23;20437;-84
2021/07/31 18:59:18;;;;;;;8.00;5.77;;;25.70;51.80;;;;;;6088483;23;20361;-84
2021/07/31 19:01:46;;;;;;;6.27;5.67;;;25.60;51.90;;;;;;6088076;23;20413;-84
2021/07/31 19:04:12;;;;;;;8.73;5.40;;;25.60;51.90;;;;;;6087906;23;20374;-84
2021/07/31 19:06:39;;;;;;;7.63;5.73;;;25.60;51.80;;;;;;6063449;23;20423;-84
2021/07/31 19:09:10;;;;;;;6.53;5.10;;;25.60;51.80;;;;;;6040613;23;20395;-84
2021/07/31 19:11:38;;;;;;;9.20;6.37;;;25.60;51.70;;;;;;6088097;23;20394;-84
2021/07/31 19:14:07;;;;;;;7.07;5.33;;;25.60;51.80;;;;;;6088337;23;20430;-84
2021/07/31 19:19:54;;;;;;;6.30;5.03;;;25.70;51.80;;;;;;6088120;23;20387;-84
2021/07/31 19:22:23;;;;;;;7.80;5.20;;;25.60;51.90;;;;;;6087661;23;20391;-84
2021/07/31 19:24:55;;;;;;;8.73;4.90;;;25.60;51.80;;;;;;6088849;23;20432;-84
2021/07/31 19:27:21;;;;;;;7.07;5.87;;;25.60;51.80;;;;;;6087916;23;20407;-84
2021/07/31 19:29:50;;;;;;;5.30;4.60;;;25.60;51.80;;;;;;6064150;23;20407;-84
2021/07/31 19:32:19;;;;;;;5.37;4.70;;;25.60;51.80;;;;;;6161781;23;20375;-84
2021/07/31 19:34:46;;;;;;;7.53;5.50;;;25.60;51.80;;;;;;6207898;23;20387;-84
2021/07/31 19:37:16;;;;;;;5.23;4.47;;;25.60;51.70;;;;;;6181325;23;20394;-84
2021/07/31 19:39:42;;;;;;;6.43;4.73;;;25.60;51.70;;;;;;6206950;23;20386;-83
2021/07/31 19:42:08;;;;;;;5.57;4.37;;;25.60;51.70;;;;;;6157590;23;20402;-84
2021/07/31 19:44:37;;;;;;;4.93;4.00;;;25.60;51.70;;;;;;6207162;23;20423;-84
2021/07/31 19:47:07;;;;;;;4.20;3.80;;;25.60;51.60;;;;;;6207524;23;20380;-84
2021/07/31 19:49:33;;;;;;;5.50;4.47;;;25.60;51.60;;;;;;6207729;23;20437;-84
2021/07/31 19:51:59;;;;;;;4.80;3.70;;;25.60;51.60;;;;;;6157088;23;20695;-84
2021/07/31 19:54:28;;;;;;;5.37;4.23;;;25.60;51.70;;;;;;6206902;23;20386;-84
2021/07/31 19:57:00;;;;;;;4.53;3.70;;;25.60;51.70;;;;;;6207233;23;20383;-84
2021/07/31 19:59:26;;;;;;;5.90;4.23;;;25.60;51.70;;;;;;6207825;23;20378;-84
2021/07/31 20:08:38;;;;;;;3.40;3.10;;;25.60;51.80;;;;;;6059480;23;20457;-83
2021/07/31 20:11:04;;;;;;;3.40;3.10;;;25.50;51.70;;;;;;6058868;23;20422;-82
2021/07/31 20:13:35;;;;;;;3.50;3.20;;;25.60;51.80;;;;;;6057925;23;20387;-82
2021/07/31 20:16:03;;;;;;;5.50;3.07;;;25.60;51.80;;;;;;6059281;23;20155;-83
2021/07/31 20:18:32;;;;;;;3.13;2.80;;;25.60;51.70;;;;;;6058914;23;20396;-84
2021/07/31 20:21:00;;;;;;;3.40;2.90;;;25.60;51.80;;;;;;6059063;23;20384;-84
2021/07/31 20:23:39;;;;;;;3.20;2.90;;;25.60;51.90;;;;;;6051302;23;20485;-84
2021/07/31 20:26:09;;;;;;;4.00;3.00;;;25.60;51.90;;;;;;6058308;23;20447;-84
2021/07/31 20:28:35;;;;;;;3.03;2.73;;;25.60;51.90;;;;;;6059718;23;20387;-83
2021/07/31 20:31:03;;;;;;;4.90;3.47;;;25.60;51.80;;;;;;6060261;23;20395;-83
2021/07/31 20:33:29;;;;;;;3.00;2.70;;;25.60;51.70;;;;;;6061142;23;20384;-84
2021/07/31 20:35:58;;;;;;;4.70;3.20;;;25.60;51.70;;;;;;6061312;23;20395;-85
2021/07/31 20:38:27;;;;;;;3.17;2.63;;;25.60;51.70;;;;;;6062513;23;20375;-84
2021/07/31 20:40:55;;;;;;;3.20;2.90;;;25.60;51.60;;;;;;6082553;23;20383;-84
2021/07/31 20:43:21;;;;;;;2.77;2.47;;;25.60;51.60;;;;;;6179050;23;20451;-83
2021/07/31 20:45:47;;;;;;;2.90;2.50;;;25.60;51.60;;;;;;6178976;23;20512;-84
2021/07/31 20:48:18;;;;;;;3.63;2.43;;;25.60;51.70;;;;;;6179503;23;20364;-84
2021/07/31 20:50:53;;;;;;;5.70;2.87;;;25.60;51.70;;;;;;6202853;23;20380;-84
2021/07/31 20:53:22;;;;;;;2.93;2.50;;;25.60;51.80;;;;;;6176754;23;20375;-84
2021/07/31 20:55:50;;;;;;;3.30;2.63;;;25.60;51.80;;;;;;6176897;23;20388;-84
2021/07/31 20:58:16;;;;;;;7.40;2.87;;;25.50;51.70;;;;;;6152713;23;20463;-84
2021/07/31 21:00:57;;;;;;;4.63;2.60;;;25.60;51.70;;;;;;6176209;23;20410;-84
2021/07/31 21:03:26;;;;;;;4.30;2.80;;;25.60;51.60;;;;;;6177261;23;20152;-84
2021/07/31 21:05:56;;;;;;;4.23;2.10;;;25.50;51.60;;;;;;6177088;23;20416;-84
2021/07/31 21:08:24;;;;;;;3.50;2.60;;;25.50;51.60;;;;;;6203240;23;20379;-84
2021/07/31 21:10:52;;;;;;;6.00;3.30;;;25.50;51.60;;;;;;6178013;23;20451;-84
2021/07/31 21:13:20;;;;;;;2.90;2.60;;;25.50;51.60;;;;;;6178824;23;20800;-84
2021/07/31 21:15:47;;;;;;;3.27;2.77;;;25.50;51.60;;;;;;6197991;23;20388;-84
2021/07/31 21:18:13;;;;;;;4.10;2.90;;;25.50;51.60;;;;;;6178549;23;20387;-84
2021/07/31 21:20:41;;;;;;;3.80;2.93;;;25.50;51.60;;;;;;6177578;23;20399;-84
2021/07/31 21:23:08;;;;;;;2.67;2.47;;;25.50;51.60;;;;;;6177905;23;20381;-84
2021/07/31 21:25:35;;;;;;;3.20;2.80;;;25.50;51.50;;;;;;6181713;23;20403;-84
2021/07/31 21:28:07;;;;;;;2.73;2.27;;;25.50;51.50;;;;;;6157342;23;20837;-84
2021/07/31 21:30:38;;;;;;;3.40;2.57;;;25.50;51.50;;;;;;6208319;23;20398;-84
2021/07/31 21:33:10;;;;;;;3.27;2.97;;;25.50;51.50;;;;;;6207798;23;20387;-84
2021/07/31 21:39:56;;;;;;;4.20;2.70;;;25.50;51.40;;;;;;6192985;23;20379;-85
2021/07/31 21:45:23;;;;;;;3.50;3.20;;;25.50;51.30;;;;;;6206007;23;20402;-82
2021/07/31 21:48:02;;;;;;;3.33;3.00;;;25.50;51.40;;;;;;6207560;23;20366;-86
2021/07/31 21:53:27;;;;;;;3.30;2.37;;;25.50;51.50;;;;;;6203275;23;20375;-81
2021/07/31 21:55:54;;;;;;;3.20;2.60;;;25.50;51.60;;;;;;6179719;23;20937;-82
2021/07/31 21:58:26;;;;;;;4.33;2.23;;;25.50;51.60;;;;;;6205124;23;20384;-81
2021/07/31 22:00:52;;;;;;;3.00;2.57;;;25.50;51.60;;;;;;6180480;23;20384;-81
2021/07/31 22:03:21;;;;;;;3.10;2.80;;;25.50;51.60;;;;;;6180336;23;20434;-81
2021/07/31 22:05:49;;;;;;;4.37;2.73;;;25.50;51.70;;;;;;6207024;23;20417;-81
2021/07/31 22:08:17;;;;;;;3.90;2.63;;;25.50;51.50;;;;;;6206982;23;20446;-81
2021/07/31 22:10:45;;;;;;;3.40;3.10;;;25.50;51.40;;;;;;6181834;23;20414;-81
2021/07/31 22:13:20;;;;;;;3.30;2.63;;;25.50;51.50;;;;;;6207919;23;20390;-81
2021/07/31 22:15:45;;;;;;;3.10;2.70;;;25.50;51.60;;;;;;6205686;23;20366;-81
2021/07/31 22:18:11;;;;;;;3.13;2.87;;;25.50;51.60;;;;;;6205933;23;20383;-81
2021/07/31 22:20:38;;;;;;;3.40;2.93;;;25.50;51.60;;;;;;6205735;23;20156;-81
2021/07/31 22:23:04;;;;;;;2.63;2.40;;;25.50;51.70;;;;;;6205769;23;20383;-81
2021/07/31 22:25:31;;;;;;;4.73;3.17;;;25.50;51.70;;;;;;6205020;23;20422;-81
2021/07/31 22:27:58;;;;;;;3.20;2.90;;;25.50;51.70;;;;;;6207412;23;20451;-81
2021/07/31 22:30:24;;;;;;;5.20;3.30;;;25.50;51.60;;;;;;6155807;23;20394;-81
2021/07/31 22:32:52;;;;;;;3.43;3.13;;;25.50;51.50;;;;;;6181387;23;20449;-81
2021/07/31 22:35:18;;;;;;;3.20;2.90;;;25.50;51.60;;;;;;6207233;23;20371;-81
2021/07/31 22:37:51;;;;;;;3.17;2.97;;;25.60;51.60;;;;;;6179649;23;20403;-82
2021/07/31 22:40:19;;;;;;;3.60;3.27;;;25.60;51.60;;;;;;6205179;23;20850;-81
2021/07/31 22:42:49;;;;;;;3.30;3.00;;;25.60;51.60;;;;;;6181735;23;20400;-81
2021/07/31 22:45:18;;;;;;;3.50;3.20;;;25.60;51.60;;;;;;6180567;23;20513;-81
2021/07/31 22:47:47;;;;;;;3.27;2.97;;;25.60;51.60;;;;;;6179960;23;20407;-81
2021/07/31 22:50:25;;;;;;;3.07;2.80;;;25.60;51.70;;;;;;6180842;23;20386;-81
2021/07/31 22:52:51;;;;;;;2.97;2.67;;;25.60;51.80;;;;;;6180587;23;20376;-81
2021/07/31 22:55:19;;;;;;;3.00;2.80;;;25.60;51.80;;;;;;6180251;23;20414;-81
2021/07/31 22:57:45;;;;;;;3.77;3.47;;;25.60;51.80;;;;;;6206037;23;20621;-81
2021/07/31 23:00:15;;;;;;;2.97;2.67;;;25.60;51.70;;;;;;6180910;23;20391;-81
2021/07/31 23:02:41;;;;;;;3.60;2.70;;;25.60;51.70;;;;;;6206342;23;20386;-81
2021/07/31 23:05:08;;;;;;;2.97;2.77;;;25.60;51.80;;;;;;6205823;23;20490;-81
2021/07/31 23:07:37;;;;;;;3.17;2.87;;;25.60;51.80;;;;;;6206737;23;20148;-81
2021/07/31 23:10:05;;;;;;;3.40;2.90;;;25.60;51.80;;;;;;6206902;23;20371;-81
2021/07/31 23:12:31;;;;;;;4.10;3.07;;;25.60;51.80;;;;;;6205931;23;20870;-81
2021/07/31 23:14:57;;;;;;;3.23;2.93;;;25.60;51.80;;;;;;6204787;23;20383;-81
2021/07/31 23:17:24;;;;;;;3.20;3.00;;;25.60;51.80;;;;;;6206615;23;20426;-81
2021/07/31 23:19:50;;;;;;;3.43;3.13;;;25.60;51.90;;;;;;6204961;23;20379;-81
2021/07/31 23:22:16;;;;;;;2.90;2.70;;;25.60;51.80;;;;;;6174450;23;20745;-82
2021/07/31 23:24:42;;;;;;;2.97;2.70;;;25.60;51.80;;;;;;6172467;23;20180;-83
2021/07/31 23:27:09;;;;;;;2.90;2.70;;;25.60;51.90;;;;;;6197636;23;20151;-83
2021/07/31 23:29:34;;;;;;;2.90;2.60;;;25.60;51.90;;;;;;6172129;23;20379;-83
2021/07/31 23:32:01;;;;;;;3.50;3.00;;;25.60;51.90;;;;;;6196189;23;20394;-82
2021/07/31 23:34:27;;;;;;;3.10;2.80;;;25.60;51.90;;;;;;6197165;23;20184;-82
2021/07/31 23:36:53;;;;;;;3.70;3.23;;;25.60;51.90;;;;;;6172075;23;20430;-83
2021/07/31 23:39:19;;;;;;;3.80;3.20;;;25.60;51.90;;;;;;6179091;23;20178;-81